sensor_id;sensor_type;location;lat;lon;timestamp;P1;durP1;ratioP1;P2;durP2;ratioP2
11173;SDS011;5643;50.856;12.088;2023-05-23T00:38:49;3.60;;;3.40;;
11173;SDS011;5643;50.856;12.088;2023-05-23T00:41:17;4.17;;;3.87;;
11173;SDS011;5643;50.856;12.088;2023-05-23T00:43:45;4.53;;;4.23;;
11173;SDS011;5643;50.856;12.088;2023-05-23T00:46:12;3.53;;;3.33;;
11173;SDS011;5643;50.856;12.088;2023-05-23T00:48:40;3.43;;;3.23;;
11173;SDS011;5643;50.856;12.088;2023-05-23T00:51:07;2.80;;;2.70;;
11173;SDS011;5643;50.856;12.088;2023-05-23T00:53:34;3.60;;;3.40;;
11173;SDS011;5643;50.856;12.088;2023-05-23T00:56:03;3.77;;;3.50;;
11173;SDS011;5643;50.856;12.088;2023-05-23T00:58:30;3.83;;;3.53;;
11173;SDS011;5643;50.856;12.088;2023-05-23T01:00:57;3.80;;;3.50;;
11173;SDS011;5643;50.856;12.088;2023-05-23T01:03:25;3.97;;;3.70;;
11173;SDS011;5643;50.856;12.088;2023-05-23T01:05:53;3.50;;;3.30;;
11173;SDS011;5643;50.856;12.088;2023-05-23T01:08:20;3.60;;;3.30;;
11173;SDS011;5643;50.856;12.088;2023-05-23T01:10:48;3.37;;;3.10;;
11173;SDS011;5643;50.856;12.088;2023-05-23T01:13:21;3.50;;;3.30;;
11173;SDS011;5643;50.856;12.088;2023-05-23T01:15:52;3.33;;;3.13;;
11173;SDS011;5643;50.856;12.088;2023-05-23T01:18:23;3.20;;;3.00;;
11173;SDS011;5643;50.856;12.088;2023-05-23T01:20:51;3.30;;;3.10;;
11173;SDS011;5643;50.856;12.088;2023-05-23T01:23:35;3.20;;;3.00;;
11173;SDS011;5643;50.856;12.088;2023-05-23T01:26:17;3.60;;;3.30;;
11173;SDS011;5643;50.856;12.088;2023-05-23T01:28:47;3.33;;;3.13;;
11173;SDS011;5643;50.856;12.088;2023-05-23T01:31:15;3.20;;;3.00;;
11173;SDS011;5643;50.856;12.088;2023-05-23T01:33:42;3.23;;;3.03;;
11173;SDS011;5643;50.856;12.088;2023-05-23T01:36:09;3.80;;;3.53;;
11173;SDS011;5643;50.856;12.088;2023-05-23T04:38:44;5.67;;;5.27;;
11173;SDS011;5643;50.856;12.088;2023-05-23T04:41:11;7.27;;;6.73;;
11173;SDS011;5643;50.856;12.088;2023-05-23T04:43:40;5.67;;;5.27;;
11173;SDS011;5643;50.856;12.088;2023-05-23T04:46:11;5.43;;;5.03;;
11173;SDS011;5643;50.856;12.088;2023-05-23T04:48:39;4.53;;;4.23;;
11173;SDS011;5643;50.856;12.088;2023-05-23T04:51:07;5.03;;;4.63;;
11173;SDS011;5643;50.856;12.088;2023-05-23T04:53:34;5.10;;;4.70;;
11173;SDS011;5643;50.856;12.088;2023-05-23T04:56:03;5.27;;;4.80;;
11173;SDS011;5643;50.856;12.088;2023-05-23T04:58:30;4.53;;;4.23;;
11173;SDS011;5643;50.856;12.088;2023-05-23T05:00:58;4.07;;;3.77;;
11173;SDS011;5643;50.856;12.088;2023-05-23T05:03:25;4.10;;;3.80;;
11173;SDS011;5643;50.856;12.088;2023-05-23T05:05:54;3.60;;;3.30;;
11173;SDS011;5643;50.856;12.088;2023-05-23T05:08:21;3.87;;;3.57;;
11173;SDS011;5643;50.856;12.088;2023-05-23T05:10:49;3.63;;;3.43;;
11173;SDS011;5643;50.856;12.088;2023-05-23T05:13:17;4.10;;;3.80;;
11173;SDS011;5643;50.856;12.088;2023-05-23T05:15:44;4.50;;;4.20;;
11173;SDS011;5643;50.856;12.088;2023-05-23T05:18:12;4.07;;;3.77;;
11173;SDS011;5643;50.856;12.088;2023-05-23T05:20:46;3.90;;;3.70;;
11173;SDS011;5643;50.856;12.088;2023-05-23T05:23:13;6.27;;;5.77;;
11173;SDS011;5643;50.856;12.088;2023-05-23T05:25:40;5.97;;;5.57;;
11173;SDS011;5643;50.856;12.088;2023-05-23T05:28:07;6.30;;;5.80;;
11173;SDS011;5643;50.856;12.088;2023-05-23T05:30:36;5.67;;;5.17;;
11173;SDS011;5643;50.856;12.088;2023-05-23T05:33:08;5.67;;;5.27;;
11173;SDS011;5643;50.856;12.088;2023-05-23T05:35:35;6.10;;;5.60;;
11173;SDS011;5643;50.856;12.088;2023-05-23T05:38:03;5.60;;;4.87;;
11173;SDS011;5643;50.856;12.088;2023-05-23T05:40:30;5.30;;;4.80;;
11173;SDS011;5643;50.856;12.088;2023-05-23T05:42:57;6.70;;;6.20;;
11173;SDS011;5643;50.856;12.088;2023-05-23T05:45:25;7.10;;;6.50;;
11173;SDS011;5643;50.856;12.088;2023-05-23T05:47:57;6.53;;;6.03;;
11173;SDS011;5643;50.856;12.088;2023-05-23T05:50:25;6.67;;;6.17;;
11173;SDS011;5643;50.856;12.088;2023-05-23T05:52:52;7.10;;;6.50;;
11173;SDS011;5643;50.856;12.088;2023-05-23T05:55:19;5.90;;;5.40;;
11173;SDS011;5643;50.856;12.088;2023-05-23T05:57:46;5.37;;;4.97;;
11173;SDS011;5643;50.856;12.088;2023-05-23T06:00:14;5.90;;;5.50;;
11173;SDS011;5643;50.856;12.088;2023-05-23T06:02:44;4.83;;;4.50;;
11173;SDS011;5643;50.856;12.088;2023-05-23T06:05:13;5.97;;;5.57;;
11173;SDS011;5643;50.856;12.088;2023-05-23T06:07:41;6.30;;;5.80;;
11173;SDS011;5643;50.856;12.088;2023-05-23T06:10:10;6.10;;;5.50;;
11173;SDS011;5643;50.856;12.088;2023-05-23T06:12:38;7.23;;;6.63;;
11173;SDS011;5643;50.856;12.088;2023-05-23T06:15:06;7.13;;;6.50;;
11173;SDS011;5643;50.856;12.088;2023-05-23T06:17:34;8.90;;;8.20;;
11173;SDS011;5643;50.856;12.088;2023-05-23T06:20:01;7.90;;;7.20;;
11173;SDS011;5643;50.856;12.088;2023-05-23T06:22:30;7.30;;;6.70;;
11173;SDS011;5643;50.856;12.088;2023-05-23T06:25:00;7.83;;;7.23;;
11173;SDS011;5643;50.856;12.088;2023-05-23T06:27:27;8.97;;;8.07;;
11173;SDS011;5643;50.856;12.088;2023-05-23T06:29:54;6.37;;;5.87;;
11173;SDS011;5643;50.856;12.088;2023-05-23T06:32:21;7.20;;;6.60;;
11173;SDS011;5643;50.856;12.088;2023-05-23T06:34:48;7.17;;;6.57;;
11173;SDS011;5643;50.856;12.088;2023-05-23T06:37:16;6.00;;;5.60;;
11173;SDS011;5643;50.856;12.088;2023-05-23T08:42:09;5.30;;;4.80;;
11173;SDS011;5643;50.856;12.088;2023-05-23T08:44:36;5.77;;;4.70;;
11173;SDS011;5643;50.856;12.088;2023-05-23T08:47:05;5.00;;;4.57;;
11173;SDS011;5643;50.856;12.088;2023-05-23T08:49:34;4.43;;;4.03;;
11173;SDS011;5643;50.856;12.088;2023-05-23T08:52:01;4.57;;;4.17;;
11173;SDS011;5643;50.856;12.088;2023-05-23T08:54:29;3.70;;;3.50;;
11173;SDS011;5643;50.856;12.088;2023-05-23T08:56:57;4.50;;;4.10;;
11173;SDS011;5643;50.856;12.088;2023-05-23T08:59:26;3.47;;;3.23;;
11173;SDS011;5643;50.856;12.088;2023-05-23T09:01:54;3.70;;;3.40;;
11173;SDS011;5643;50.856;12.088;2023-05-23T09:04:23;3.70;;;3.40;;
11173;SDS011;5643;50.856;12.088;2023-05-23T09:06:50;3.10;;;2.90;;
11173;SDS011;5643;50.856;12.088;2023-05-23T09:09:18;3.07;;;2.87;;
11173;SDS011;5643;50.856;12.088;2023-05-23T09:11:49;2.80;;;2.60;;
11173;SDS011;5643;50.856;12.088;2023-05-23T09:14:17;2.40;;;2.30;;
11173;SDS011;5643;50.856;12.088;2023-05-23T09:16:46;3.00;;;2.80;;
11173;SDS011;5643;50.856;12.088;2023-05-23T09:19:14;2.87;;;2.67;;
11173;SDS011;5643;50.856;12.088;2023-05-23T09:21:42;2.00;;;1.90;;
11173;SDS011;5643;50.856;12.088;2023-05-23T09:24:10;2.73;;;2.53;;
11173;SDS011;5643;50.856;12.088;2023-05-23T09:26:37;3.10;;;2.90;;
11173;SDS011;5643;50.856;12.088;2023-05-23T09:29:05;2.67;;;2.47;;
11173;SDS011;5643;50.856;12.088;2023-05-23T09:31:32;2.60;;;2.40;;
11173;SDS011;5643;50.856;12.088;2023-05-23T09:34:01;2.27;;;2.07;;
11173;SDS011;5643;50.856;12.088;2023-05-23T09:36:29;1.90;;;1.80;;
11173;SDS011;5643;50.856;12.088;2023-05-23T09:38:59;1.73;;;1.63;;
11173;SDS011;5643;50.856;12.088;2023-05-23T10:42:48;1.63;;;1.53;;
11173;SDS011;5643;50.856;12.088;2023-05-23T10:45:18;1.80;;;1.70;;
11173;SDS011;5643;50.856;12.088;2023-05-23T10:47:46;1.50;;;1.40;;
11173;SDS011;5643;50.856;12.088;2023-05-23T10:50:13;1.73;;;1.60;;
11173;SDS011;5643;50.856;12.088;2023-05-23T10:52:42;1.50;;;1.40;;
11173;SDS011;5643;50.856;12.088;2023-05-23T10:55:13;1.53;;;1.43;;
11173;SDS011;5643;50.856;12.088;2023-05-23T10:57:43;1.70;;;1.60;;
11173;SDS011;5643;50.856;12.088;2023-05-23T11:00:15;1.40;;;1.30;;
11173;SDS011;5643;50.856;12.088;2023-05-23T11:02:46;1.30;;;1.20;;
11173;SDS011;5643;50.856;12.088;2023-05-23T11:05:17;0.93;;;0.93;;
11173;SDS011;5643;50.856;12.088;2023-05-23T11:07:45;1.50;;;1.20;;
11173;SDS011;5643;50.856;12.088;2023-05-23T11:10:13;1.50;;;1.20;;
11173;SDS011;5643;50.856;12.088;2023-05-23T11:12:42;2.17;;;1.20;;
11173;SDS011;5643;50.856;12.088;2023-05-23T11:15:20;1.50;;;1.40;;
11173;SDS011;5643;50.856;12.088;2023-05-23T11:17:49;2.10;;;1.57;;
11173;SDS011;5643;50.856;12.088;2023-05-23T11:20:17;1.30;;;1.20;;
11173;SDS011;5643;50.856;12.088;2023-05-23T11:22:54;1.33;;;1.23;;
11173;SDS011;5643;50.856;12.088;2023-05-23T11:25:38;5.13;;;1.50;;
11173;SDS011;5643;50.856;12.088;2023-05-23T11:28:08;1.50;;;1.40;;
11173;SDS011;5643;50.856;12.088;2023-05-23T11:30:38;1.47;;;1.37;;
11173;SDS011;5643;50.856;12.088;2023-05-23T11:33:05;1.40;;;1.30;;
11173;SDS011;5643;50.856;12.088;2023-05-23T11:35:40;1.30;;;1.30;;
11173;SDS011;5643;50.856;12.088;2023-05-23T11:38:08;1.40;;;1.30;;
11173;SDS011;5643;50.856;12.088;2023-05-23T11:40:36;1.80;;;1.70;;
11173;SDS011;5643;50.856;12.088;2023-05-23T17:44:13;3.03;;;2.83;;
11173;SDS011;5643;50.856;12.088;2023-05-23T17:46:40;2.93;;;2.73;;
11173;SDS011;5643;50.856;12.088;2023-05-23T17:49:07;2.63;;;2.43;;
11173;SDS011;5643;50.856;12.088;2023-05-23T17:51:34;4.53;;;3.23;;
11173;SDS011;5643;50.856;12.088;2023-05-23T17:54:04;2.90;;;2.70;;
11173;SDS011;5643;50.856;12.088;2023-05-23T17:56:31;3.03;;;2.70;;
11173;SDS011;5643;50.856;12.088;2023-05-23T17:59:01;2.60;;;2.40;;
11173;SDS011;5643;50.856;12.088;2023-05-23T18:01:30;3.80;;;3.07;;
11173;SDS011;5643;50.856;12.088;2023-05-23T18:03:57;3.93;;;3.03;;
11173;SDS011;5643;50.856;12.088;2023-05-23T18:06:24;3.27;;;2.97;;
11173;SDS011;5643;50.856;12.088;2023-05-23T18:08:53;4.43;;;3.30;;
11173;SDS011;5643;50.856;12.088;2023-05-23T18:11:20;3.17;;;2.87;;
11173;SDS011;5643;50.856;12.088;2023-05-23T18:13:47;3.70;;;3.13;;
11173;SDS011;5643;50.856;12.088;2023-05-23T18:16:14;3.13;;;2.80;;
11173;SDS011;5643;50.856;12.088;2023-05-23T18:18:49;4.43;;;3.47;;
11173;SDS011;5643;50.856;12.088;2023-05-23T18:21:16;4.53;;;3.33;;
11173;SDS011;5643;50.856;12.088;2023-05-23T18:23:43;3.10;;;2.63;;
11173;SDS011;5643;50.856;12.088;2023-05-23T18:26:13;4.17;;;3.00;;
11173;SDS011;5643;50.856;12.088;2023-05-23T18:28:40;5.23;;;3.23;;
11173;SDS011;5643;50.856;12.088;2023-05-23T18:31:07;3.93;;;3.23;;
11173;SDS011;5643;50.856;12.088;2023-05-23T18:33:34;3.23;;;2.90;;
11173;SDS011;5643;50.856;12.088;2023-05-23T18:36:03;3.30;;;2.90;;
11173;SDS011;5643;50.856;12.088;2023-05-23T18:38:31;4.30;;;3.23;;
11173;SDS011;5643;50.856;12.088;2023-05-23T18:40:58;3.83;;;2.80;;
11173;SDS011;5643;50.856;12.088;2023-05-23T18:43:25;4.77;;;3.43;;
11173;SDS011;5643;50.856;12.088;2023-05-23T19:46:51;4.83;;;2.20;;
11173;SDS011;5643;50.856;12.088;2023-05-23T19:49:18;2.93;;;2.10;;
11173;SDS011;5643;50.856;12.088;2023-05-23T19:51:46;3.20;;;2.60;;
11173;SDS011;5643;50.856;12.088;2023-05-23T19:54:13;4.30;;;2.03;;
11173;SDS011;5643;50.856;12.088;2023-05-23T19:56:40;3.97;;;2.30;;
11173;SDS011;5643;50.856;12.088;2023-05-23T19:59:07;4.87;;;2.60;;
11173;SDS011;5643;50.856;12.088;2023-05-23T20:01:34;5.17;;;1.90;;
11173;SDS011;5643;50.856;12.088;2023-05-23T20:04:03;2.17;;;1.70;;
11173;SDS011;5643;50.856;12.088;2023-05-23T20:06:33;2.00;;;1.73;;
11173;SDS011;5643;50.856;12.088;2023-05-23T20:09:01;1.97;;;1.77;;
11173;SDS011;5643;50.856;12.088;2023-05-23T20:11:28;2.23;;;1.60;;
11173;SDS011;5643;50.856;12.088;2023-05-23T20:13:55;2.97;;;1.83;;
11173;SDS011;5643;50.856;12.088;2023-05-23T20:16:23;1.73;;;1.50;;
11173;SDS011;5643;50.856;12.088;2023-05-23T20:18:50;2.40;;;2.13;;
11173;SDS011;5643;50.856;12.088;2023-05-23T20:21:18;2.97;;;2.13;;
11173;SDS011;5643;50.856;12.088;2023-05-23T20:23:52;2.00;;;1.50;;
11173;SDS011;5643;50.856;12.088;2023-05-23T20:26:19;1.83;;;1.50;;
11173;SDS011;5643;50.856;12.088;2023-05-23T20:28:47;2.10;;;1.50;;
11173;SDS011;5643;50.856;12.088;2023-05-23T20:31:14;5.23;;;2.53;;
11173;SDS011;5643;50.856;12.088;2023-05-23T20:33:41;4.63;;;2.60;;
11173;SDS011;5643;50.856;12.088;2023-05-23T20:36:09;4.37;;;2.60;;
11173;SDS011;5643;50.856;12.088;2023-05-23T20:38:39;4.27;;;2.73;;
11173;SDS011;5643;50.856;12.088;2023-05-23T20:41:06;4.80;;;2.60;;
11173;SDS011;5643;50.856;12.088;2023-05-23T20:43:33;3.97;;;2.57;;
11173;SDS011;5643;50.856;12.088;2023-05-23T21:47:06;5.03;;;2.60;;
11173;SDS011;5643;50.856;12.088;2023-05-23T21:49:33;5.93;;;2.93;;
11173;SDS011;5643;50.856;12.088;2023-05-23T21:52:00;4.27;;;2.43;;
11173;SDS011;5643;50.856;12.088;2023-05-23T21:54:27;4.83;;;3.23;;
11173;SDS011;5643;50.856;12.088;2023-05-23T21:56:55;6.50;;;2.90;;
11173;SDS011;5643;50.856;12.088;2023-05-23T21:59:23;5.57;;;2.57;;
11173;SDS011;5643;50.856;12.088;2023-05-23T22:01:50;6.47;;;2.77;;
11173;SDS011;5643;50.856;12.088;2023-05-23T22:04:18;5.67;;;3.13;;
11173;SDS011;5643;50.856;12.088;2023-05-23T22:06:47;6.73;;;3.07;;
11173;SDS011;5643;50.856;12.088;2023-05-23T22:09:14;5.37;;;2.83;;
11173;SDS011;5643;50.856;12.088;2023-05-23T22:11:43;6.43;;;3.10;;
11173;SDS011;5643;50.856;12.088;2023-05-23T22:14:11;4.47;;;2.67;;
11173;SDS011;5643;50.856;12.088;2023-05-23T22:16:38;4.07;;;2.50;;
11173;SDS011;5643;50.856;12.088;2023-05-23T22:19:05;6.10;;;2.83;;
11173;SDS011;5643;50.856;12.088;2023-05-23T22:21:35;7.60;;;3.20;;
11173;SDS011;5643;50.856;12.088;2023-05-23T22:24:02;4.97;;;2.70;;
11173;SDS011;5643;50.856;12.088;2023-05-23T22:26:29;3.83;;;2.13;;
11173;SDS011;5643;50.856;12.088;2023-05-23T22:28:56;4.67;;;2.40;;
11173;SDS011;5643;50.856;12.088;2023-05-23T22:31:26;5.57;;;2.43;;
11173;SDS011;5643;50.856;12.088;2023-05-23T22:33:53;5.30;;;2.43;;
11173;SDS011;5643;50.856;12.088;2023-05-23T22:36:20;4.10;;;2.37;;
11173;SDS011;5643;50.856;12.088;2023-05-23T22:38:49;3.63;;;2.20;;
11173;SDS011;5643;50.856;12.088;2023-05-23T22:41:17;4.73;;;2.10;;
11173;SDS011;5643;50.856;12.088;2023-05-23T22:43:44;4.50;;;2.27;;
11173;SDS011;5643;50.856;12.088;2023-05-23T22:46:11;5.43;;;2.40;;
11173;SDS011;5643;50.856;12.088;2023-05-23T22:48:38;4.60;;;2.33;;
11173;SDS011;5643;50.856;12.088;2023-05-23T22:51:15;5.27;;;2.40;;
11173;SDS011;5643;50.856;12.088;2023-05-23T22:53:44;5.37;;;2.20;;
11173;SDS011;5643;50.856;12.088;2023-05-23T22:56:12;4.97;;;2.33;;
11173;SDS011;5643;50.856;12.088;2023-05-23T22:58:40;3.03;;;1.97;;
11173;SDS011;5643;50.856;12.088;2023-05-23T23:01:08;2.97;;;1.90;;
11173;SDS011;5643;50.856;12.088;2023-05-23T23:03:35;3.17;;;1.83;;
11173;SDS011;5643;50.856;12.088;2023-05-23T23:06:02;4.30;;;1.93;;
11173;SDS011;5643;50.856;12.088;2023-05-23T23:08:31;4.50;;;2.20;;
11173;SDS011;5643;50.856;12.088;2023-05-23T23:10:59;3.90;;;1.97;;
11173;SDS011;5643;50.856;12.088;2023-05-23T23:13:28;4.83;;;2.53;;
11173;SDS011;5643;50.856;12.088;2023-05-23T23:15:55;4.13;;;2.03;;
11173;SDS011;5643;50.856;12.088;2023-05-23T23:18:23;4.43;;;2.07;;
11173;SDS011;5643;50.856;12.088;2023-05-23T23:20:51;7.43;;;2.33;;
11173;SDS011;5643;50.856;12.088;2023-05-23T23:23:18;3.20;;;2.00;;
11173;SDS011;5643;50.856;12.088;2023-05-23T23:25:45;4.33;;;2.00;;
11173;SDS011;5643;50.856;12.088;2023-05-23T23:28:16;4.33;;;2.20;;
11173;SDS011;5643;50.856;12.088;2023-05-23T23:30:44;5.67;;;2.60;;
11173;SDS011;5643;50.856;12.088;2023-05-23T23:33:11;5.03;;;2.10;;
11173;SDS011;5643;50.856;12.088;2023-05-23T23:35:39;3.50;;;2.00;;
11173;SDS011;5643;50.856;12.088;2023-05-23T23:38:10;5.23;;;2.60;;
11173;SDS011;5643;50.856;12.088;2023-05-23T23:40:37;3.93;;;2.30;;
11173;SDS011;5643;50.856;12.088;2023-05-23T23:43:04;4.83;;;2.40;;
11173;SDS011;5643;50.856;12.088;2023-05-23T23:45:31;4.80;;;2.47;;
11173;SDS011;5643;50.856;12.088;2023-05-23T23:47:59;3.77;;;1.97;;
11173;SDS011;5643;50.856;12.088;2023-05-23T23:50:26;5.03;;;2.80;;
11173;SDS011;5643;50.856;12.088;2023-05-23T23:52:55;4.73;;;2.30;;
11173;SDS011;5643;50.856;12.088;2023-05-23T23:55:24;4.00;;;2.00;;
11173;SDS011;5643;50.856;12.088;2023-05-23T23:57:51;3.60;;;1.73;;
